sensor_id;sensor_type;location;lat;lon;timestamp;pressure;altitude;pressure_sealevel;temperature;humidity
1480;BME280;732;51.698;4.886;2022-07-18T00:00:08;102449.16;;;19.30;100.00
1480;BME280;732;51.698;4.886;2022-07-18T00:02:37;102434.09;;;19.20;100.00
1480;BME280;732;51.698;4.886;2022-07-18T00:05:06;102468.72;;;19.35;100.00
1480;BME280;732;51.698;4.886;2022-07-18T00:07:36;102469.47;;;19.28;100.00
1480;BME280;732;51.698;4.886;2022-07-18T00:10:05;102450.00;;;19.20;100.00
1480;BME280;732;51.698;4.886;2022-07-18T00:12:34;102461.53;;;19.26;100.00
1480;BME280;732;51.698;4.886;2022-07-18T00:15:06;102423.44;;;19.18;100.00
1480;BME280;732;51.698;4.886;2022-07-18T00:17:34;102459.72;;;19.22;100.00
1480;BME280;732;51.698;4.886;2022-07-18T00:20:05;102428.59;;;19.00;100.00
1480;BME280;732;51.698;4.886;2022-07-18T00:22:34;102447.16;;;19.01;100.00
1480;BME280;732;51.698;4.886;2022-07-18T00:25:04;102454.19;;;18.98;100.00
1480;BME280;732;51.698;4.886;2022-07-18T00:27:33;102430.28;;;18.92;100.00
1480;BME280;732;51.698;4.886;2022-07-18T00:30:03;102452.47;;;19.01;100.00
1480;BME280;732;51.698;4.886;2022-07-18T00:32:32;102391.28;;;18.73;100.00
1480;BME280;732;51.698;4.886;2022-07-18T00:35:01;102446.38;;;19.10;100.00
1480;BME280;732;51.698;4.886;2022-07-18T00:37:29;102451.59;;;19.01;100.00
1480;BME280;732;51.698;4.886;2022-07-18T00:39:58;102444.50;;;18.98;100.00
1480;BME280;732;51.698;4.886;2022-07-18T00:42:26;102441.78;;;18.95;100.00
1480;BME280;732;51.698;4.886;2022-07-18T00:44:55;102414.22;;;18.77;100.00
1480;BME280;732;51.698;4.886;2022-07-18T00:47:24;102433.75;;;18.85;100.00
1480;BME280;732;51.698;4.886;2022-07-18T00:49:54;102424.06;;;18.88;100.00
1480;BME280;732;51.698;4.886;2022-07-18T00:52:22;102406.22;;;18.69;100.00
1480;BME280;732;51.698;4.886;2022-07-18T00:54:51;102395.53;;;18.60;100.00
1480;BME280;732;51.698;4.886;2022-07-18T00:57:20;102423.09;;;18.77;100.00
1480;BME280;732;51.698;4.886;2022-07-18T00:59:49;102418.69;;;18.78;100.00
1480;BME280;732;51.698;4.886;2022-07-18T01:02:36;102398.16;;;18.56;100.00
1480;BME280;732;51.698;4.886;2022-07-18T01:05:07;102389.16;;;18.42;100.00
1480;BME280;732;51.698;4.886;2022-07-18T01:07:36;102414.16;;;18.66;100.00
1480;BME280;732;51.698;4.886;2022-07-18T01:10:06;102417.69;;;18.68;100.00
1480;BME280;732;51.698;4.886;2022-07-18T01:12:35;102417.63;;;18.62;100.00
1480;BME280;732;51.698;4.886;2022-07-18T01:15:05;102412.31;;;18.59;100.00
1480;BME280;732;51.698;4.886;2022-07-18T01:17:33;102437.88;;;18.56;100.00
1480;BME280;732;51.698;4.886;2022-07-18T01:20:02;102400.53;;;18.38;100.00
1480;BME280;732;51.698;4.886;2022-07-18T01:22:33;102434.25;;;18.48;100.00
1480;BME280;732;51.698;4.886;2022-07-18T01:25:01;102422.75;;;18.46;100.00
1480;BME280;732;51.698;4.886;2022-07-18T01:27:30;102434.94;;;18.36;100.00
1480;BME280;732;51.698;4.886;2022-07-18T01:29:58;102429.59;;;18.32;100.00
1480;BME280;732;51.698;4.886;2022-07-18T01:32:27;102430.56;;;18.37;100.00
1480;BME280;732;51.698;4.886;2022-07-18T01:34:55;102433.22;;;18.38;100.00
1480;BME280;732;51.698;4.886;2022-07-18T01:37:24;102423.50;;;18.37;100.00
1480;BME280;732;51.698;4.886;2022-07-18T01:39:54;102420.78;;;18.30;100.00
1480;BME280;732;51.698;4.886;2022-07-18T01:42:22;102384.38;;;18.10;100.00
1480;BME280;732;51.698;4.886;2022-07-18T01:44:51;102402.06;;;18.16;100.00
1480;BME280;732;51.698;4.886;2022-07-18T01:47:20;102387.94;;;18.14;100.00
1480;BME280;732;51.698;4.886;2022-07-18T01:49:48;102406.63;;;18.28;100.00
1480;BME280;732;51.698;4.886;2022-07-18T01:52:17;102394.03;;;18.07;100.00
1480;BME280;732;51.698;4.886;2022-07-18T01:54:45;102406.53;;;18.20;100.00
1480;BME280;732;51.698;4.886;2022-07-18T01:57:15;102408.19;;;18.13;100.00
1480;BME280;732;51.698;4.886;2022-07-18T01:59:44;102407.31;;;18.13;100.00
1480;BME280;732;51.698;4.886;2022-07-18T02:02:12;102409.13;;;18.17;100.00
1480;BME280;732;51.698;4.886;2022-07-18T02:04:41;102379.72;;;17.94;100.00
1480;BME280;732;51.698;4.886;2022-07-18T02:07:29;102383.25;;;17.92;100.00
1480;BME280;732;51.698;4.886;2022-07-18T02:09:58;102363.78;;;17.88;100.00
1480;BME280;732;51.698;4.886;2022-07-18T02:12:29;102393.03;;;18.00;100.00
1480;BME280;732;51.698;4.886;2022-07-18T02:14:57;102399.16;;;17.96;100.00
1480;BME280;732;51.698;4.886;2022-07-18T02:17:25;102364.59;;;17.83;100.00
1480;BME280;732;51.698;4.886;2022-07-18T02:19:54;102399.25;;;18.04;100.00
1480;BME280;732;51.698;4.886;2022-07-18T02:22:23;102381.47;;;17.91;100.00
1480;BME280;732;51.698;4.886;2022-07-18T02:24:52;102392.13;;;17.98;100.00
1480;BME280;732;51.698;4.886;2022-07-18T02:27:21;102353.91;;;17.75;100.00
1480;BME280;732;51.698;4.886;2022-07-18T02:29:51;102399.13;;;17.92;100.00
1480;BME280;732;51.698;4.886;2022-07-18T02:32:20;102392.00;;;17.88;100.00
1480;BME280;732;51.698;4.886;2022-07-18T02:34:50;102363.63;;;17.76;100.00
1480;BME280;732;51.698;4.886;2022-07-18T02:37:19;102368.84;;;17.70;100.00
1480;BME280;732;51.698;4.886;2022-07-18T02:39:47;102379.63;;;17.85;100.00
1480;BME280;732;51.698;4.886;2022-07-18T02:42:16;102355.66;;;17.73;100.00
1480;BME280;732;51.698;4.886;2022-07-18T02:44:44;102376.09;;;17.85;100.00
1480;BME280;732;51.698;4.886;2022-07-18T02:47:15;102351.16;;;17.68;100.00
1480;BME280;732;51.698;4.886;2022-07-18T02:49:43;102364.53;;;17.77;100.00
1480;BME280;732;51.698;4.886;2022-07-18T02:52:11;102361.72;;;17.66;100.00
1480;BME280;732;51.698;4.886;2022-07-18T02:54:40;102345.75;;;17.57;100.00
1480;BME280;732;51.698;4.886;2022-07-18T02:57:08;102350.19;;;17.58;100.00
1480;BME280;732;51.698;4.886;2022-07-18T02:59:38;102360.81;;;17.63;100.00
1480;BME280;732;51.698;4.886;2022-07-18T03:02:06;102354.66;;;17.64;100.00
1480;BME280;732;51.698;4.886;2022-07-18T03:04:36;102334.09;;;17.46;100.00
1480;BME280;732;51.698;4.886;2022-07-18T03:07:04;102354.63;;;17.62;100.00
1480;BME280;732;51.698;4.886;2022-07-18T03:09:33;102351.94;;;17.58;100.00
1480;BME280;732;51.698;4.886;2022-07-18T03:12:02;102344.81;;;17.52;100.00
1480;BME280;732;51.698;4.886;2022-07-18T03:14:31;102334.09;;;17.46;100.00
1480;BME280;732;51.698;4.886;2022-07-18T03:16:59;102334.91;;;17.41;100.00
1480;BME280;732;51.698;4.886;2022-07-18T03:19:28;102342.16;;;17.51;100.00
1480;BME280;732;51.698;4.886;2022-07-18T03:21:58;102319.06;;;17.44;100.00
1480;BME280;732;51.698;4.886;2022-07-18T03:24:26;102317.13;;;17.31;100.00
1480;BME280;732;51.698;4.886;2022-07-18T03:26:55;102304.69;;;17.24;100.00
1480;BME280;732;51.698;4.886;2022-07-18T03:29:23;102337.59;;;17.44;100.00
1480;BME280;732;51.698;4.886;2022-07-18T03:31:53;102337.59;;;17.44;100.00
1480;BME280;732;51.698;4.886;2022-07-18T03:34:21;102347.44;;;17.51;100.00
1480;BME280;732;51.698;4.886;2022-07-18T03:36:50;102337.59;;;17.44;100.00
1480;BME280;732;51.698;4.886;2022-07-18T03:39:20;102338.47;;;17.43;100.00
1480;BME280;732;51.698;4.886;2022-07-18T03:41:48;102338.50;;;17.47;100.00
1480;BME280;732;51.698;4.886;2022-07-18T03:44:18;102333.16;;;17.41;100.00
1480;BME280;732;51.698;4.886;2022-07-18T03:46:48;102300.22;;;17.18;100.00
1480;BME280;732;51.698;4.886;2022-07-18T03:49:18;102338.47;;;17.44;100.00
1480;BME280;732;51.698;4.886;2022-07-18T03:51:47;102319.78;;;17.31;100.00
1480;BME280;732;51.698;4.886;2022-07-18T03:54:16;102321.69;;;17.39;100.00
1480;BME280;732;51.698;4.886;2022-07-18T03:56:46;102328.81;;;17.45;100.00
1480;BME280;732;51.698;4.886;2022-07-18T03:59:15;102326.19;;;17.46;100.00
1480;BME280;732;51.698;4.886;2022-07-18T04:01:43;102311.03;;;17.35;100.00
1480;BME280;732;51.698;4.886;2022-07-18T04:04:11;102321.59;;;17.35;100.00
1480;BME280;732;51.698;4.886;2022-07-18T04:06:40;102305.63;;;17.26;100.00
1480;BME280;732;51.698;4.886;2022-07-18T04:09:08;102329.66;;;17.44;100.00
1480;BME280;732;51.698;4.886;2022-07-18T04:11:37;102304.03;;;17.40;100.00
1480;BME280;732;51.698;4.886;2022-07-18T04:14:08;102301.38;;;17.38;100.00
1480;BME280;732;51.698;4.886;2022-07-18T04:16:36;102284.50;;;17.29;100.00
1480;BME280;732;51.698;4.886;2022-07-18T04:19:04;102288.06;;;17.32;100.00
1480;BME280;732;51.698;4.886;2022-07-18T04:21:33;102288.13;;;17.35;100.00
1480;BME280;732;51.698;4.886;2022-07-18T04:24:02;102312.19;;;17.52;100.00
1480;BME280;732;51.698;4.886;2022-07-18T04:26:31;102310.53;;;17.60;100.00
1480;BME280;732;51.698;4.886;2022-07-18T04:28:59;102282.19;;;17.50;100.00
1480;BME280;732;51.698;4.886;2022-07-18T04:31:29;102285.63;;;17.46;100.00
1480;BME280;732;51.698;4.886;2022-07-18T04:33:58;102294.63;;;17.57;100.00
1480;BME280;732;51.698;4.886;2022-07-18T04:36:26;102288.41;;;17.55;100.00
1480;BME280;732;51.698;4.886;2022-07-18T04:38:55;102303.63;;;17.71;100.00
1480;BME280;732;51.698;4.886;2022-07-18T04:41:23;102286.69;;;17.57;100.00
1480;BME280;732;51.698;4.886;2022-07-18T04:43:52;102296.53;;;17.68;100.00
1480;BME280;732;51.698;4.886;2022-07-18T04:46:20;102282.38;;;17.65;100.00
1480;BME280;732;51.698;4.886;2022-07-18T04:48:50;102306.38;;;17.80;100.00
1480;BME280;732;51.698;4.886;2022-07-18T04:51:19;102287.78;;;17.72;100.00
1480;BME280;732;51.698;4.886;2022-07-18T04:53:48;102311.78;;;17.89;100.00
1480;BME280;732;51.698;4.886;2022-07-18T04:56:16;102253.22;;;17.60;100.00
1480;BME280;732;51.698;4.886;2022-07-18T04:58:44;102315.38;;;17.95;100.00
1480;BME280;732;51.698;4.886;2022-07-18T05:01:13;102295.88;;;17.86;100.00
1480;BME280;732;51.698;4.886;2022-07-18T05:03:42;102285.28;;;17.86;100.00
1480;BME280;732;51.698;4.886;2022-07-18T05:06:14;102304.81;;;17.97;100.00
1480;BME280;732;51.698;4.886;2022-07-18T05:08:43;102307.56;;;18.07;100.00
1480;BME280;732;51.698;4.886;2022-07-18T05:11:11;102307.66;;;18.17;100.00
1480;BME280;732;51.698;4.886;2022-07-18T05:13:39;102310.34;;;18.18;100.00
1480;BME280;732;51.698;4.886;2022-07-18T05:16:08;102305.88;;;18.13;100.00
1480;BME280;732;51.698;4.886;2022-07-18T05:18:37;102289.88;;;18.03;100.00
1480;BME280;732;51.698;4.886;2022-07-18T05:21:05;102308.56;;;18.17;100.00
1480;BME280;732;51.698;4.886;2022-07-18T05:23:35;102312.94;;;18.15;100.00
1480;BME280;732;51.698;4.886;2022-07-18T05:26:04;102313.09;;;18.26;100.00
1480;BME280;732;51.698;4.886;2022-07-18T05:28:32;102310.59;;;18.41;100.00
1480;BME280;732;51.698;4.886;2022-07-18T05:31:01;102271.56;;;18.20;100.00
1480;BME280;732;51.698;4.886;2022-07-18T05:33:29;102312.44;;;18.48;100.00
1480;BME280;732;51.698;4.886;2022-07-18T05:36:04;102290.28;;;18.41;100.00
1480;BME280;732;51.698;4.886;2022-07-18T05:38:32;102316.03;;;18.54;100.00
1480;BME280;732;51.698;4.886;2022-07-18T05:41:02;102284.97;;;18.38;100.00
1480;BME280;732;51.698;4.886;2022-07-18T05:43:30;102300.06;;;18.47;100.00
1480;BME280;732;51.698;4.886;2022-07-18T05:45:59;102320.47;;;18.55;100.00
1480;BME280;732;51.698;4.886;2022-07-18T05:48:28;102311.75;;;18.68;100.00
1480;BME280;732;51.698;4.886;2022-07-18T05:50:56;102307.34;;;18.72;100.00
1480;BME280;732;51.698;4.886;2022-07-18T05:53:25;102317.22;;;18.91;100.00
1480;BME280;732;51.698;4.886;2022-07-18T05:55:53;102276.41;;;18.68;100.00
1480;BME280;732;51.698;4.886;2022-07-18T05:58:23;102298.56;;;18.73;100.00
1480;BME280;732;51.698;4.886;2022-07-18T06:00:52;102318.16;;;18.97;100.00
1480;BME280;732;51.698;4.886;2022-07-18T06:03:21;102297.88;;;19.01;100.00
1480;BME280;732;51.698;4.886;2022-07-18T06:05:50;102309.47;;;19.18;100.00
1480;BME280;732;51.698;4.886;2022-07-18T06:08:26;102285.63;;;19.20;100.00
1480;BME280;732;51.698;4.886;2022-07-18T06:10:54;102303.44;;;19.37;100.00
1480;BME280;732;51.698;4.886;2022-07-18T06:13:24;102291.03;;;19.32;100.00
1480;BME280;732;51.698;4.886;2022-07-18T06:15:53;102303.50;;;19.54;100.00
1480;BME280;732;51.698;4.886;2022-07-18T06:18:21;102289.38;;;19.56;100.00
1480;BME280;732;51.698;4.886;2022-07-18T06:20:50;102304.44;;;19.62;100.00
1480;BME280;732;51.698;4.886;2022-07-18T06:23:19;102290.38;;;19.81;100.00
1480;BME280;732;51.698;4.886;2022-07-18T06:25:47;102285.91;;;19.65;100.00
1480;BME280;732;51.698;4.886;2022-07-18T06:28:15;102276.19;;;19.74;100.00
1480;BME280;732;51.698;4.886;2022-07-18T06:30:45;102283.31;;;19.87;100.00
1480;BME280;732;51.698;4.886;2022-07-18T06:33:14;102274.47;;;19.90;100.00
1480;BME280;732;51.698;4.886;2022-07-18T06:35:42;102285.13;;;20.05;100.00
1480;BME280;732;51.698;4.886;2022-07-18T06:38:11;102271.00;;;20.17;100.00
1480;BME280;732;51.698;4.886;2022-07-18T06:40:39;102243.56;;;20.16;100.00
1480;BME280;732;51.698;4.886;2022-07-18T06:43:08;102281.69;;;20.29;100.00
1480;BME280;732;51.698;4.886;2022-07-18T06:45:36;102257.78;;;20.21;100.00
1480;BME280;732;51.698;4.886;2022-07-18T06:48:06;102276.38;;;20.48;100.00
1480;BME280;732;51.698;4.886;2022-07-18T06:50:37;102256.91;;;20.54;100.00
1480;BME280;732;51.698;4.886;2022-07-18T06:53:05;102267.53;;;20.70;100.00
1480;BME280;732;51.698;4.886;2022-07-18T06:55:33;102265.75;;;20.80;100.00
1480;BME280;732;51.698;4.886;2022-07-18T06:58:02;102269.31;;;20.79;100.00
1480;BME280;732;51.698;4.886;2022-07-18T07:00:31;102277.28;;;21.02;100.00
1480;BME280;732;51.698;4.886;2022-07-18T07:03:00;102279.03;;;21.21;100.00
1480;BME280;732;51.698;4.886;2022-07-18T07:05:30;102277.22;;;21.30;100.00
1480;BME280;732;51.698;4.886;2022-07-18T07:07:59;102283.41;;;21.34;100.00
1480;BME280;732;51.698;4.886;2022-07-18T07:10:28;102277.13;;;21.53;100.00
1480;BME280;732;51.698;4.886;2022-07-18T07:12:56;102262.06;;;21.52;100.00
1480;BME280;732;51.698;4.886;2022-07-18T07:15:25;102289.47;;;21.83;100.00
1480;BME280;732;51.698;4.886;2022-07-18T07:17:53;102266.34;;;21.92;100.00
1480;BME280;732;51.698;4.886;2022-07-18T07:20:22;102283.88;;;22.23;100.00
1480;BME280;732;51.698;4.886;2022-07-18T07:22:54;102282.03;;;22.34;100.00
1480;BME280;732;51.698;4.886;2022-07-18T07:25:25;102258.06;;;22.34;100.00
1480;BME280;732;51.698;4.886;2022-07-18T07:27:54;102282.81;;;22.47;100.00
1480;BME280;732;51.698;4.886;2022-07-18T07:30:22;102254.38;;;22.49;100.00
1480;BME280;732;51.698;4.886;2022-07-18T07:32:51;102271.84;;;22.89;100.00
1480;BME280;732;51.698;4.886;2022-07-18T07:35:20;102265.50;;;23.01;100.00
1480;BME280;732;51.698;4.886;2022-07-18T07:37:53;102252.06;;;23.10;100.00
1480;BME280;732;51.698;4.886;2022-07-18T07:40:25;102254.53;;;23.29;100.00
1480;BME280;732;51.698;4.886;2022-07-18T07:43:06;102256.16;;;23.44;100.00
1480;BME280;732;51.698;4.886;2022-07-18T07:45:35;102247.09;;;23.55;100.00
1480;BME280;732;51.698;4.886;2022-07-18T07:48:06;102246.16;;;23.61;100.00
1480;BME280;732;51.698;4.886;2022-07-18T07:50:35;102259.22;;;23.81;100.00
1480;BME280;732;51.698;4.886;2022-07-18T07:53:04;102252.50;;;24.16;100.00
1480;BME280;732;51.698;4.886;2022-07-18T07:55:34;102180.91;;;24.36;100.00
1480;BME280;732;51.698;4.886;2022-07-18T07:58:02;102242.31;;;24.91;100.00
1480;BME280;732;51.698;4.886;2022-07-18T08:00:32;102234.03;;;25.50;100.00
1480;BME280;732;51.698;4.886;2022-07-18T08:03:03;102236.59;;;27.02;100.00
1480;BME280;732;51.698;4.886;2022-07-18T08:05:34;102235.22;;;28.64;100.00
1480;BME280;732;51.698;4.886;2022-07-18T08:08:06;102209.75;;;29.92;100.00
1480;BME280;732;51.698;4.886;2022-07-18T08:10:35;102226.97;;;31.35;100.00
1480;BME280;732;51.698;4.886;2022-07-18T08:13:11;102203.97;;;32.20;100.00
1480;BME280;732;51.698;4.886;2022-07-18T08:15:40;102210.72;;;32.81;100.00
1480;BME280;732;51.698;4.886;2022-07-18T08:18:09;102222.09;;;33.54;100.00
1480;BME280;732;51.698;4.886;2022-07-18T08:20:40;102221.13;;;33.55;100.00
1480;BME280;732;51.698;4.886;2022-07-18T08:23:11;102205.88;;;34.01;100.00
1480;BME280;732;51.698;4.886;2022-07-18T08:25:42;102232.03;;;34.18;100.00
1480;BME280;732;51.698;4.886;2022-07-18T08:28:12;102213.72;;;34.96;100.00
1480;BME280;732;51.698;4.886;2022-07-18T08:30:41;102227.75;;;35.32;100.00
1480;BME280;732;51.698;4.886;2022-07-18T08:33:12;102218.03;;;35.42;97.18
1480;BME280;732;51.698;4.886;2022-07-18T08:35:42;102230.59;;;35.59;95.40
1480;BME280;732;51.698;4.886;2022-07-18T08:38:12;102208.31;;;35.67;94.78
1480;BME280;732;51.698;4.886;2022-07-18T08:40:40;102220.53;;;35.74;93.25
1480;BME280;732;51.698;4.886;2022-07-18T08:43:10;102218.41;;;35.93;91.27
1480;BME280;732;51.698;4.886;2022-07-18T08:45:54;102217.50;;;36.33;91.83
1480;BME280;732;51.698;4.886;2022-07-18T08:48:24;102205.50;;;36.35;90.71
1480;BME280;732;51.698;4.886;2022-07-18T08:50:53;102204.41;;;36.25;91.75
1480;BME280;732;51.698;4.886;2022-07-18T08:53:22;102189.34;;;36.20;87.58
1480;BME280;732;51.698;4.886;2022-07-18T08:55:51;102221.91;;;35.95;86.30
1480;BME280;732;51.698;4.886;2022-07-18T08:58:20;102213.94;;;36.18;87.95
1480;BME280;732;51.698;4.886;2022-07-18T09:01:09;102210.16;;;36.48;88.44
1480;BME280;732;51.698;4.886;2022-07-18T09:03:37;102203.56;;;36.11;87.23
1480;BME280;732;51.698;4.886;2022-07-18T09:06:08;102215.38;;;36.51;85.87
1480;BME280;732;51.698;4.886;2022-07-18T09:08:40;102210.41;;;36.57;87.72
1480;BME280;732;51.698;4.886;2022-07-18T09:11:11;102219.53;;;36.56;84.64
1480;BME280;732;51.698;4.886;2022-07-18T09:13:59;102217.25;;;36.89;85.30
1480;BME280;732;51.698;4.886;2022-07-18T09:16:28;102205.56;;;36.87;85.55
1480;BME280;732;51.698;4.886;2022-07-18T09:18:56;102215.81;;;37.09;89.56
1480;BME280;732;51.698;4.886;2022-07-18T09:21:25;102210.50;;;37.07;87.73
1480;BME280;732;51.698;4.886;2022-07-18T09:24:02;102215.06;;;37.07;86.48
1480;BME280;732;51.698;4.886;2022-07-18T09:26:38;102218.72;;;36.81;83.27
1480;BME280;732;51.698;4.886;2022-07-18T09:29:08;102207.44;;;36.60;81.29
1480;BME280;732;51.698;4.886;2022-07-18T09:31:55;102216.69;;;36.45;82.35
1480;BME280;732;51.698;4.886;2022-07-18T09:34:34;102207.69;;;36.04;80.68
1480;BME280;732;51.698;4.886;2022-07-18T09:37:03;102221.47;;;35.46;79.13
1480;BME280;732;51.698;4.886;2022-07-18T09:39:33;102217.06;;;35.72;79.30
1480;BME280;732;51.698;4.886;2022-07-18T09:42:15;102212.84;;;35.94;81.62
1480;BME280;732;51.698;4.886;2022-07-18T09:44:57;102216.34;;;35.96;76.67
1480;BME280;732;51.698;4.886;2022-07-18T09:47:26;102206.53;;;36.20;79.53
1480;BME280;732;51.698;4.886;2022-07-18T09:49:54;102204.69;;;35.94;77.35
1480;BME280;732;51.698;4.886;2022-07-18T09:52:23;102206.50;;;36.08;81.84
1480;BME280;732;51.698;4.886;2022-07-18T09:55:04;102185.34;;;35.99;77.05
1480;BME280;732;51.698;4.886;2022-07-18T09:57:33;102191.47;;;35.88;73.34
1480;BME280;732;51.698;4.886;2022-07-18T10:00:05;102205.88;;;36.17;73.84
1480;BME280;732;51.698;4.886;2022-07-18T10:02:38;102203.72;;;36.49;77.86
1480;BME280;732;51.698;4.886;2022-07-18T10:05:08;102195.13;;;36.55;79.03
1480;BME280;732;51.698;4.886;2022-07-18T10:07:37;102200.41;;;36.83;79.01
1480;BME280;732;51.698;4.886;2022-07-18T10:10:08;102198.72;;;36.55;76.43
1480;BME280;732;51.698;4.886;2022-07-18T10:12:37;102204.06;;;36.30;76.68
1480;BME280;732;51.698;4.886;2022-07-18T10:15:07;102201.34;;;36.30;75.68
1480;BME280;732;51.698;4.886;2022-07-18T10:17:36;102196.19;;;36.39;74.61
1480;BME280;732;51.698;4.886;2022-07-18T10:20:08;102196.13;;;36.27;73.81
1480;BME280;732;51.698;4.886;2022-07-18T10:22:40;102176.38;;;36.23;75.42
1480;BME280;732;51.698;4.886;2022-07-18T10:25:14;102205.16;;;36.54;76.63
1480;BME280;732;51.698;4.886;2022-07-18T10:27:50;102175.91;;;36.43;76.17
1480;BME280;732;51.698;4.886;2022-07-18T10:30:32;102191.09;;;36.48;75.83
1480;BME280;732;51.698;4.886;2022-07-18T10:33:02;102202.47;;;36.79;75.29
1480;BME280;732;51.698;4.886;2022-07-18T10:35:58;102198.03;;;36.78;73.92
1480;BME280;732;51.698;4.886;2022-07-18T10:38:38;102201.69;;;36.65;73.31
1480;BME280;732;51.698;4.886;2022-07-18T10:41:11;102197.75;;;36.95;76.81
1480;BME280;732;51.698;4.886;2022-07-18T10:43:43;102182.56;;;37.04;78.56
1480;BME280;732;51.698;4.886;2022-07-18T10:46:13;102165.66;;;37.11;77.73
1480;BME280;732;51.698;4.886;2022-07-18T10:48:57;102174.16;;;36.94;73.01
1480;BME280;732;51.698;4.886;2022-07-18T10:51:31;102192.59;;;36.91;73.23
1480;BME280;732;51.698;4.886;2022-07-18T10:54:09;102185.69;;;36.73;72.30
1480;BME280;732;51.698;4.886;2022-07-18T10:57:08;102172.69;;;36.64;76.46
1480;BME280;732;51.698;4.886;2022-07-18T11:00:00;102184.59;;;36.75;73.36
1480;BME280;732;51.698;4.886;2022-07-18T11:02:33;102171.97;;;36.99;72.47
1480;BME280;732;51.698;4.886;2022-07-18T11:08:16;102172.19;;;36.96;71.10
1480;BME280;732;51.698;4.886;2022-07-18T11:11:09;102166.16;;;36.66;72.84
1480;BME280;732;51.698;4.886;2022-07-18T11:13:44;102152.31;;;36.82;68.86
1480;BME280;732;51.698;4.886;2022-07-18T11:16:20;102154.75;;;37.11;68.58
1480;BME280;732;51.698;4.886;2022-07-18T11:19:19;102175.97;;;36.81;68.63
1480;BME280;732;51.698;4.886;2022-07-18T11:21:58;102143.94;;;36.33;66.62
1480;BME280;732;51.698;4.886;2022-07-18T11:24:27;102168.41;;;36.20;66.27
1480;BME280;732;51.698;4.886;2022-07-18T11:26:56;102160.03;;;36.75;67.16
1480;BME280;732;51.698;4.886;2022-07-18T11:29:26;102139.78;;;36.79;70.70
1480;BME280;732;51.698;4.886;2022-07-18T11:31:57;102146.75;;;36.83;64.48
1480;BME280;732;51.698;4.886;2022-07-18T11:34:27;102156.47;;;37.00;67.62
1480;BME280;732;51.698;4.886;2022-07-18T11:37:12;102149.41;;;36.85;65.24
1480;BME280;732;51.698;4.886;2022-07-18T11:39:41;102152.31;;;36.82;64.30
1480;BME280;732;51.698;4.886;2022-07-18T11:42:10;102152.09;;;36.60;63.13
1480;BME280;732;51.698;4.886;2022-07-18T11:44:41;102136.94;;;36.29;63.96
1480;BME280;732;51.698;4.886;2022-07-18T11:47:11;102144.00;;;36.46;66.65
1480;BME280;732;51.698;4.886;2022-07-18T11:49:54;102135.16;;;36.55;67.97
1480;BME280;732;51.698;4.886;2022-07-18T11:52:24;102146.84;;;36.69;62.75
1480;BME280;732;51.698;4.886;2022-07-18T11:54:58;102127.69;;;36.71;64.50
1480;BME280;732;51.698;4.886;2022-07-18T11:57:29;102123.44;;;36.92;64.24
1480;BME280;732;51.698;4.886;2022-07-18T11:59:59;102143.94;;;36.97;65.43
1480;BME280;732;51.698;4.886;2022-07-18T12:03:07;102120.63;;;36.93;66.63
1480;BME280;732;51.698;4.886;2022-07-18T12:05:43;102131.63;;;37.04;63.18
1480;BME280;732;51.698;4.886;2022-07-18T12:08:27;102135.09;;;37.19;62.97
1480;BME280;732;51.698;4.886;2022-07-18T12:11:14;102133.56;;;37.40;66.72
1480;BME280;732;51.698;4.886;2022-07-18T12:13:51;102134.41;;;37.28;67.38
1480;BME280;732;51.698;4.886;2022-07-18T12:16:32;102124.25;;;37.43;66.94
1480;BME280;732;51.698;4.886;2022-07-18T12:19:07;102107.28;;;37.14;65.44
1480;BME280;732;51.698;4.886;2022-07-18T12:21:48;102129.53;;;37.08;67.99
1480;BME280;732;51.698;4.886;2022-07-18T12:24:29;102128.31;;;37.37;67.69
1480;BME280;732;51.698;4.886;2022-07-18T12:27:18;102127.03;;;37.17;64.09
1480;BME280;732;51.698;4.886;2022-07-18T12:29:59;102127.78;;;37.07;67.27
1480;BME280;732;51.698;4.886;2022-07-18T12:32:39;102108.38;;;36.99;65.40
1480;BME280;732;51.698;4.886;2022-07-18T12:35:11;102104.44;;;36.78;65.88
1480;BME280;732;51.698;4.886;2022-07-18T12:37:40;102107.91;;;37.17;65.24
1480;BME280;732;51.698;4.886;2022-07-18T12:40:12;102101.38;;;37.33;65.72
1480;BME280;732;51.698;4.886;2022-07-18T12:43:07;102101.81;;;37.63;65.57
1480;BME280;732;51.698;4.886;2022-07-18T12:45:37;102113.75;;;37.49;60.43
1480;BME280;732;51.698;4.886;2022-07-18T12:48:11;102093.72;;;37.25;63.47
1480;BME280;732;51.698;4.886;2022-07-18T12:50:41;102099.06;;;37.26;65.32
1480;BME280;732;51.698;4.886;2022-07-18T12:53:10;102106.16;;;37.42;63.57
1480;BME280;732;51.698;4.886;2022-07-18T12:55:39;102090.53;;;37.44;63.41
1480;BME280;732;51.698;4.886;2022-07-18T12:58:08;102074.91;;;36.97;65.27
1480;BME280;732;51.698;4.886;2022-07-18T13:00:36;102079.31;;;37.23;65.67
1480;BME280;732;51.698;4.886;2022-07-18T13:03:04;102087.88;;;37.55;68.40
1480;BME280;732;51.698;4.886;2022-07-18T13:05:34;102091.91;;;37.73;65.37
1480;BME280;732;51.698;4.886;2022-07-18T13:08:03;102079.03;;;37.87;62.66
1480;BME280;732;51.698;4.886;2022-07-18T13:10:33;102074.22;;;38.02;63.61
1480;BME280;732;51.698;4.886;2022-07-18T13:13:02;102069.56;;;38.15;61.62
1480;BME280;732;51.698;4.886;2022-07-18T13:15:32;102073.22;;;38.03;63.41
1480;BME280;732;51.698;4.886;2022-07-18T13:18:01;102083.41;;;38.01;62.74
1480;BME280;732;51.698;4.886;2022-07-18T13:20:29;102084.53;;;37.75;61.89
1480;BME280;732;51.698;4.886;2022-07-18T13:22:59;102084.56;;;37.86;61.55
1480;BME280;732;51.698;4.886;2022-07-18T13:25:29;102070.28;;;38.06;61.64
1480;BME280;732;51.698;4.886;2022-07-18T13:28:00;102075.44;;;38.33;63.20
1480;BME280;732;51.698;4.886;2022-07-18T13:30:28;102068.78;;;38.13;61.63
1480;BME280;732;51.698;4.886;2022-07-18T13:32:57;102065.44;;;38.09;65.52
1480;BME280;732;51.698;4.886;2022-07-18T13:35:26;102075.19;;;38.01;61.23
1480;BME280;732;51.698;4.886;2022-07-18T13:37:54;102053.59;;;38.33;66.80